Thedford, NE

8:28 PM CDT on April 26, 2018 (GMT -0500)
Thedford

Weather History for KTIF - July, 2012

Change the Weather History Date:

Wednesday, July 11, 2012

  Actual Average (KANW) Record (KANW)
Temperature  
Mean Temperature 76 °F -  
Max Temperature 93 °F 85 °F 97 °F (2017)
Min Temperature 60 °F 61 °F 51 °F (1999)
Cooling Degree Days 11    
Growing Degree Days 26 (Base 50)    
Moisture  
Dew Point 53 °F    
Average Humidity 48    
Maximum Humidity 85    
Minimum Humidity 22    
Precipitation  
Precipitation 0.00 in - - ()
Sea Level Pressure  
Sea Level Pressure 30.12 in    
Wind  
Wind Speed 9 mph (South)    
Max Wind Speed 17 mph    
Max Gust Speed 24 mph    
Visibility 10 miles    
Events      
Averages and records for this station are not official NWS values.
T = Trace of Precipitation, MM = Missing Value Source: NWS Daily Summary

Daily Weather History Graph

Daily Weather History Graph

Search for Another Location

Airport or City:

Astronomy

Jul. 11, 2012 Rise Set
Actual Time 6:17 AM CDT 9:17 PM CDT
Civil Twilight 5:43 AM CDT 9:51 PM CDT
Nautical Twilight 5:01 AM CDT 10:34 PM CDT
Astronomical Twilight 4:10 AM CDT 11:24 PM CDT
Moon 12:55 AM CDT (7/11) 2:52 PM CDT (7/11)
Length of Visible Light 16h 07m
Length of Day
15h 00m
Last Quarter, 44% of the Moon is Illuminated
Jul 11
Last Quarter
Jul 18
New
Jul 26
First Quarter
Aug 1
Full
Aug 9
Last Quarter

Hourly Weather History & Observations

Time (CDT) Temp. Heat Index Dew Point Humidity Pressure Visibility Wind Dir Wind Speed Gust Speed Precip Events Conditions
12:15 AM 67.3 °F - 56.3 °F 68% 30.19 in 10.0 mi South 9.2 mph - N/A   Clear
12:35 AM 66.7 °F - 56.3 °F 69% 30.19 in 10.0 mi South 8.1 mph - N/A   Clear
12:55 AM 65.7 °F - 55.9 °F 71% 30.19 in 10.0 mi South 5.8 mph - N/A   Clear
1:15 AM 65.5 °F - 55.2 °F 69% 30.19 in 10.0 mi SSW 5.8 mph - N/A   Clear
1:35 AM 65.8 °F - 54.0 °F 65% 30.19 in 10.0 mi SSW 6.9 mph - N/A   Clear
1:55 AM 66.4 °F - 54.5 °F 66% 30.19 in 10.0 mi SSW 6.9 mph - N/A   Clear
2:15 AM 64.0 °F - 54.1 °F 70% 30.19 in 10.0 mi Calm Calm - N/A   Clear
2:35 AM 63.7 °F - 54.5 °F 72% 30.19 in 10.0 mi SSW 4.6 mph - N/A   Clear
2:55 AM 63.5 °F - 54.7 °F 73% 30.19 in 10.0 mi Calm Calm - N/A   Clear
3:15 AM 62.8 °F - 55.0 °F 76% 30.18 in 10.0 mi SSW 4.6 mph - N/A   Clear
3:35 AM 63.1 °F - 55.8 °F 77% 30.17 in 10.0 mi SSW 5.8 mph - N/A   Clear
3:55 AM 63.3 °F - 56.3 °F 78% 30.17 in 10.0 mi SSW 5.8 mph - N/A   Clear
4:15 AM 62.6 °F - 56.3 °F 80% 30.17 in 10.0 mi South 5.8 mph - N/A   Clear
4:35 AM 62.8 °F - 56.5 °F 80% 30.17 in 10.0 mi SSW 6.9 mph - N/A   Clear
4:55 AM 62.6 °F - 56.3 °F 80% 30.17 in 10.0 mi SW 4.6 mph - N/A   Clear
5:15 AM 60.4 °F - 55.9 °F 85% 30.17 in 10.0 mi Calm Calm - N/A   Clear
5:35 AM 61.0 °F - 55.8 °F 83% 30.17 in 10.0 mi SSW 4.6 mph - N/A   Clear
5:55 AM 61.0 °F - 55.6 °F 82% 30.17 in 10.0 mi SSW 4.6 mph - N/A   Clear
6:15 AM 61.5 °F - 55.8 °F 81% 30.17 in 10.0 mi SSW 8.1 mph - N/A   Clear
6:35 AM 61.9 °F - 55.8 °F 80% 30.17 in 10.0 mi SSW 5.8 mph - N/A   Clear
6:55 AM 61.9 °F - 55.8 °F 80% 30.17 in 10.0 mi Calm Calm - N/A   Clear
7:15 AM 63.5 °F - 56.3 °F 77% 30.17 in 10.0 mi South 5.8 mph - N/A   Clear
7:35 AM 64.9 °F - 56.3 °F 74% 30.17 in 10.0 mi SSW 8.1 mph - N/A   Clear
7:55 AM 66.9 °F - 56.3 °F 69% 30.16 in 10.0 mi SSW 9.2 mph - N/A   Clear
8:15 AM 68.2 °F - 55.6 °F 64% 30.17 in 10.0 mi SSW 11.5 mph - N/A   Clear
8:35 AM 70.0 °F - 55.8 °F 61% 30.16 in 10.0 mi SSW 10.4 mph - N/A   Clear
8:55 AM 72.3 °F - 55.4 °F 55% 30.16 in 10.0 mi SSW 13.8 mph - N/A   Clear
9:15 AM 74.3 °F - 55.0 °F 51% 30.16 in 10.0 mi SSW 13.8 mph - N/A   Clear
9:35 AM 75.7 °F - 55.0 °F 49% 30.16 in 10.0 mi SSW 16.1 mph - N/A   Clear
9:55 AM 77.9 °F - 55.2 °F 45% 30.15 in 10.0 mi SSW 15.0 mph 19.6 mph N/A   Clear
10:15 AM 79.0 °F - 55.0 °F 44% 30.15 in 10.0 mi South 15.0 mph 18.4 mph N/A   Clear
10:35 AM 80.8 °F 80.5 °F 54.7 °F 40% 30.15 in 10.0 mi SSW 15.0 mph 18.4 mph N/A   Clear
10:55 AM 81.7 °F 81.2 °F 54.9 °F 40% 30.14 in 10.0 mi South 11.5 mph 17.3 mph N/A   Clear
11:15 AM 82.8 °F 81.9 °F 54.7 °F 38% 30.14 in 10.0 mi South 11.5 mph - N/A   Clear
11:35 AM 84.4 °F 82.9 °F 54.1 °F 35% 30.14 in 10.0 mi South 11.5 mph 17.3 mph N/A   Clear
11:55 AM 85.1 °F 83.5 °F 53.8 °F 34% 30.14 in 10.0 mi South 12.7 mph 18.4 mph N/A   Clear
12:15 PM 86.2 °F 84.4 °F 53.8 °F 33% 30.14 in 10.0 mi SW 9.2 mph 19.6 mph N/A   Clear
12:35 PM 87.1 °F 84.9 °F 53.2 °F 31% 30.13 in 10.0 mi South 8.1 mph 18.4 mph N/A   Clear
12:55 PM 88.3 °F - 52.5 °F 29% 30.13 in 10.0 mi SSW 10.4 mph 19.6 mph N/A   Clear
1:15 PM 88.7 °F - 51.6 °F 28% 30.12 in 10.0 mi South 12.7 mph 18.4 mph N/A   Clear
1:35 PM 88.5 °F - 50.4 °F 27% 30.11 in 10.0 mi SSE 12.7 mph 16.1 mph N/A   Clear
1:55 PM 90.0 °F - 50.2 °F 25% 30.10 in 10.0 mi South 8.1 mph 19.6 mph N/A   Clear
2:15 PM 90.1 °F - 50.5 °F 26% 30.10 in 10.0 mi South 10.4 mph 21.9 mph N/A   Clear
2:35 PM 90.5 °F - 49.5 °F 24% 30.10 in 10.0 mi SW 9.2 mph 19.6 mph N/A   Scattered Clouds
2:55 PM 90.0 °F - 49.3 °F 25% 30.09 in 10.0 mi South 13.8 mph 19.6 mph N/A   Scattered Clouds
3:15 PM 90.7 °F - 48.6 °F 23% 30.08 in 10.0 mi South 9.2 mph 20.7 mph N/A   Scattered Clouds
3:35 PM 91.4 °F - 48.0 °F 22% 30.08 in 10.0 mi SSE 10.4 mph 18.4 mph N/A   Scattered Clouds
3:55 PM 92.3 °F - 48.2 °F 22% 30.08 in 10.0 mi SSW 12.7 mph 20.7 mph N/A   Scattered Clouds
4:15 PM 92.1 °F - 49.3 °F 23% 30.07 in 10.0 mi South 12.7 mph 19.6 mph N/A   Scattered Clouds
4:35 PM 90.5 °F - 48.7 °F 24% 30.07 in 10.0 mi South 13.8 mph 20.7 mph N/A   Scattered Clouds
4:55 PM 92.7 °F - 48.4 °F 22% 30.07 in 10.0 mi SSW 17.3 mph - N/A   Mostly Cloudy
5:15 PM 91.8 °F - 48.2 °F 22% 30.06 in 10.0 mi South 15.0 mph 19.6 mph N/A   Scattered Clouds
5:35 PM 91.9 °F - 47.8 °F 22% 30.06 in 10.0 mi South 16.1 mph 23.0 mph N/A   Clear
5:55 PM 91.4 °F - 47.5 °F 22% 30.06 in 10.0 mi South 15.0 mph 18.4 mph N/A   Clear
6:15 PM 90.9 °F - 47.7 °F 23% 30.05 in 10.0 mi South 17.3 mph 24.2 mph N/A   Scattered Clouds
6:35 PM 90.0 °F - 47.7 °F 23% 30.04 in 10.0 mi South 17.3 mph 21.9 mph N/A   Scattered Clouds
6:55 PM 89.8 °F - 48.2 °F 24% 30.04 in 10.0 mi South 17.3 mph - N/A   Clear
7:15 PM 89.1 °F - 48.4 °F 25% 30.04 in 10.0 mi South 12.7 mph 21.9 mph N/A   Clear
7:35 PM 88.2 °F - 49.6 °F 26% 30.03 in 10.0 mi South 16.1 mph 21.9 mph N/A   Clear
7:55 PM 87.6 °F - 49.6 °F 27% 30.04 in 10.0 mi South 17.3 mph 24.2 mph N/A   Clear
8:15 PM 86.5 °F - 50.0 °F 28% 30.04 in 10.0 mi South 13.8 mph 19.6 mph N/A   Clear
8:35 PM 85.5 °F - 50.2 °F 29% 30.04 in 10.0 mi SSE 12.7 mph - N/A   Clear
8:55 PM 83.5 °F - 52.3 °F 34% 30.04 in 10.0 mi SSE 15.0 mph - N/A   Clear
9:15 PM 81.7 °F 80.9 °F 53.2 °F 37% 30.04 in 10.0 mi South 11.5 mph - N/A   Clear
9:35 PM 80.6 °F 80.3 °F 53.6 °F 39% 30.04 in 10.0 mi South 11.5 mph - N/A   Clear
9:55 PM 79.0 °F - 54.0 °F 42% 30.05 in 10.0 mi SSE 11.5 mph - N/A   Clear
10:15 PM 77.9 °F - 55.4 °F 46% 30.05 in 10.0 mi SSE 12.7 mph - N/A   Clear
10:35 PM 77.0 °F - 56.7 °F 49% 30.06 in 10.0 mi South 12.7 mph - N/A   Clear
10:55 PM 75.7 °F - 57.2 °F 52% 30.07 in 10.0 mi South 12.7 mph 18.4 mph N/A   Clear
11:15 PM 75.2 °F - 57.2 °F 53% 30.07 in 10.0 mi South 16.1 mph 23.0 mph N/A   Clear
11:35 PM 74.1 °F - 56.7 °F 54% 30.07 in 10.0 mi South 13.8 mph 19.6 mph N/A   Clear
11:55 PM 73.4 °F - 56.3 °F 55% 30.07 in 10.0 mi South 15.0 mph - N/A   Clear